sensor_id;sensor_type;location;lat;lon;timestamp;P1;durP1;ratioP1;P2;durP2;ratioP2
3177;SDS011;38141;42.666;23.344;2024-02-28T00:00:54;32.07;;;15.87;;
3177;SDS011;38141;42.666;23.344;2024-02-28T00:03:21;32.10;;;15.27;;
3177;SDS011;38141;42.666;23.344;2024-02-28T00:05:50;25.90;;;14.97;;
3177;SDS011;38141;42.666;23.344;2024-02-28T00:08:17;28.33;;;15.70;;
3177;SDS011;38141;42.666;23.344;2024-02-28T00:10:45;27.40;;;15.33;;
3177;SDS011;38141;42.666;23.344;2024-02-28T00:13:12;33.50;;;16.10;;
3177;SDS011;38141;42.666;23.344;2024-02-28T00:15:42;29.30;;;14.37;;
3177;SDS011;38141;42.666;23.344;2024-02-28T00:18:09;29.00;;;15.67;;
3177;SDS011;38141;42.666;23.344;2024-02-28T00:20:36;31.63;;;14.77;;
3177;SDS011;38141;42.666;23.344;2024-02-28T00:23:05;30.47;;;15.20;;
3177;SDS011;38141;42.666;23.344;2024-02-28T00:25:32;31.60;;;15.17;;
3177;SDS011;38141;42.666;23.344;2024-02-28T00:27:59;23.93;;;13.63;;
3177;SDS011;38141;42.666;23.344;2024-02-28T00:30:26;35.07;;;16.17;;
3177;SDS011;38141;42.666;23.344;2024-02-28T00:32:53;28.57;;;15.87;;
3177;SDS011;38141;42.666;23.344;2024-02-28T00:35:19;27.27;;;15.07;;
3177;SDS011;38141;42.666;23.344;2024-02-28T00:37:46;30.40;;;16.40;;
3177;SDS011;38141;42.666;23.344;2024-02-28T00:40:15;26.43;;;14.87;;
3177;SDS011;38141;42.666;23.344;2024-02-28T00:42:42;27.93;;;15.20;;
3177;SDS011;38141;42.666;23.344;2024-02-28T00:45:09;27.30;;;15.10;;
3177;SDS011;38141;42.666;23.344;2024-02-28T00:47:36;28.40;;;16.30;;
3177;SDS011;38141;42.666;23.344;2024-02-28T00:50:03;30.67;;;16.43;;
3177;SDS011;38141;42.666;23.344;2024-02-28T00:52:30;25.70;;;15.30;;
3177;SDS011;38141;42.666;23.344;2024-02-28T00:54:58;28.93;;;15.90;;
3177;SDS011;38141;42.666;23.344;2024-02-28T00:57:26;30.00;;;17.33;;
3177;SDS011;38141;42.666;23.344;2024-02-28T00:59:53;34.77;;;16.33;;
3177;SDS011;38141;42.666;23.344;2024-02-28T01:02:20;26.50;;;15.43;;
3177;SDS011;38141;42.666;23.344;2024-02-28T01:04:48;27.63;;;14.97;;
3177;SDS011;38141;42.666;23.344;2024-02-28T01:07:15;28.83;;;15.60;;
3177;SDS011;38141;42.666;23.344;2024-02-28T01:09:42;25.73;;;16.10;;
3177;SDS011;38141;42.666;23.344;2024-02-28T01:12:09;31.00;;;15.30;;
3177;SDS011;38141;42.666;23.344;2024-02-28T01:14:37;33.07;;;16.67;;
3177;SDS011;38141;42.666;23.344;2024-02-28T01:17:04;39.63;;;21.53;;
3177;SDS011;38141;42.666;23.344;2024-02-28T01:19:31;28.73;;;15.80;;
3177;SDS011;38141;42.666;23.344;2024-02-28T01:21:58;31.13;;;16.10;;
3177;SDS011;38141;42.666;23.344;2024-02-28T01:24:25;31.70;;;17.63;;
3177;SDS011;38141;42.666;23.344;2024-02-28T01:26:52;28.87;;;16.90;;
3177;SDS011;38141;42.666;23.344;2024-02-28T01:29:19;28.57;;;15.43;;
3177;SDS011;38141;42.666;23.344;2024-02-28T01:31:48;28.00;;;15.83;;
3177;SDS011;38141;42.666;23.344;2024-02-28T01:34:16;29.40;;;15.87;;
3177;SDS011;38141;42.666;23.344;2024-02-28T01:36:43;30.77;;;16.43;;
3177;SDS011;38141;42.666;23.344;2024-02-28T01:39:10;37.53;;;16.43;;
3177;SDS011;38141;42.666;23.344;2024-02-28T01:41:37;28.40;;;15.00;;
3177;SDS011;38141;42.666;23.344;2024-02-28T01:44:04;23.27;;;13.60;;
3177;SDS011;38141;42.666;23.344;2024-02-28T01:46:31;26.77;;;15.50;;
3177;SDS011;38141;42.666;23.344;2024-02-28T01:49:00;31.53;;;15.03;;
3177;SDS011;38141;42.666;23.344;2024-02-28T01:51:27;25.30;;;14.13;;
3177;SDS011;38141;42.666;23.344;2024-02-28T01:53:54;25.13;;;15.37;;
3177;SDS011;38141;42.666;23.344;2024-02-28T01:56:22;26.90;;;14.90;;
3177;SDS011;38141;42.666;23.344;2024-02-28T01:58:50;30.50;;;16.83;;
3177;SDS011;38141;42.666;23.344;2024-02-28T02:01:18;26.93;;;15.13;;
3177;SDS011;38141;42.666;23.344;2024-02-28T02:03:45;24.87;;;14.80;;
3177;SDS011;38141;42.666;23.344;2024-02-28T02:06:14;25.97;;;14.60;;
3177;SDS011;38141;42.666;23.344;2024-02-28T02:08:41;23.53;;;13.90;;
3177;SDS011;38141;42.666;23.344;2024-02-28T02:11:08;25.33;;;14.30;;
3177;SDS011;38141;42.666;23.344;2024-02-28T02:13:35;25.00;;;15.17;;
3177;SDS011;38141;42.666;23.344;2024-02-28T02:16:13;26.93;;;15.80;;
3177;SDS011;38141;42.666;23.344;2024-02-28T02:18:40;23.83;;;14.63;;
3177;SDS011;38141;42.666;23.344;2024-02-28T02:21:07;25.17;;;14.57;;
3177;SDS011;38141;42.666;23.344;2024-02-28T02:23:39;27.57;;;14.30;;
3177;SDS011;38141;42.666;23.344;2024-02-28T02:26:06;26.50;;;15.53;;
3177;SDS011;38141;42.666;23.344;2024-02-28T02:28:34;24.27;;;14.30;;
3177;SDS011;38141;42.666;23.344;2024-02-28T02:31:01;26.23;;;15.23;;
3177;SDS011;38141;42.666;23.344;2024-02-28T02:33:28;26.77;;;14.60;;
3177;SDS011;38141;42.666;23.344;2024-02-28T02:35:55;26.47;;;15.37;;
3177;SDS011;38141;42.666;23.344;2024-02-28T02:38:22;23.80;;;14.70;;
3177;SDS011;38141;42.666;23.344;2024-02-28T02:40:51;25.67;;;14.60;;
3177;SDS011;38141;42.666;23.344;2024-02-28T02:43:18;31.00;;;15.57;;
3177;SDS011;38141;42.666;23.344;2024-02-28T02:45:45;24.53;;;14.70;;
3177;SDS011;38141;42.666;23.344;2024-02-28T02:48:12;26.73;;;15.47;;
3177;SDS011;38141;42.666;23.344;2024-02-28T02:50:39;22.60;;;14.23;;
3177;SDS011;38141;42.666;23.344;2024-02-28T02:53:08;27.07;;;15.97;;
3177;SDS011;38141;42.666;23.344;2024-02-28T02:55:36;26.90;;;15.10;;
3177;SDS011;38141;42.666;23.344;2024-02-28T02:58:05;27.80;;;15.73;;
3177;SDS011;38141;42.666;23.344;2024-02-28T03:00:32;32.03;;;15.83;;
3177;SDS011;38141;42.666;23.344;2024-02-28T03:02:58;25.03;;;15.33;;
3177;SDS011;38141;42.666;23.344;2024-02-28T03:05:25;24.30;;;14.60;;
3177;SDS011;38141;42.666;23.344;2024-02-28T03:07:52;25.17;;;14.37;;
3177;SDS011;38141;42.666;23.344;2024-02-28T03:10:19;31.20;;;14.67;;
3177;SDS011;38141;42.666;23.344;2024-02-28T03:12:46;27.10;;;15.43;;
3177;SDS011;38141;42.666;23.344;2024-02-28T03:15:15;25.17;;;14.47;;
3177;SDS011;38141;42.666;23.344;2024-02-28T03:17:42;26.40;;;14.03;;
3177;SDS011;38141;42.666;23.344;2024-02-28T03:20:09;31.37;;;16.10;;
3177;SDS011;38141;42.666;23.344;2024-02-28T03:22:38;26.23;;;14.53;;
3177;SDS011;38141;42.666;23.344;2024-02-28T03:25:06;28.80;;;14.93;;
3177;SDS011;38141;42.666;23.344;2024-02-28T03:27:34;25.50;;;14.60;;
3177;SDS011;38141;42.666;23.344;2024-02-28T03:30:01;24.40;;;14.07;;
3177;SDS011;38141;42.666;23.344;2024-02-28T03:32:30;32.27;;;15.53;;
3177;SDS011;38141;42.666;23.344;2024-02-28T03:34:57;30.90;;;14.97;;
3177;SDS011;38141;42.666;23.344;2024-02-28T03:37:25;26.87;;;14.90;;
3177;SDS011;38141;42.666;23.344;2024-02-28T03:39:52;27.43;;;16.60;;
3177;SDS011;38141;42.666;23.344;2024-02-28T03:42:19;28.90;;;15.50;;
3177;SDS011;38141;42.666;23.344;2024-02-28T03:44:46;28.63;;;15.73;;
3177;SDS011;38141;42.666;23.344;2024-02-28T03:47:13;27.77;;;16.27;;
3177;SDS011;38141;42.666;23.344;2024-02-28T03:49:41;28.03;;;15.23;;
3177;SDS011;38141;42.666;23.344;2024-02-28T03:52:09;37.13;;;16.77;;
3177;SDS011;38141;42.666;23.344;2024-02-28T03:54:36;26.73;;;13.80;;
3177;SDS011;38141;42.666;23.344;2024-02-28T03:57:03;28.80;;;16.40;;
3177;SDS011;38141;42.666;23.344;2024-02-28T03:59:30;33.63;;;15.40;;
3177;SDS011;38141;42.666;23.344;2024-02-28T04:01:57;28.30;;;16.00;;
3177;SDS011;38141;42.666;23.344;2024-02-28T04:04:24;32.77;;;17.70;;
3177;SDS011;38141;42.666;23.344;2024-02-28T04:06:53;32.67;;;18.10;;
3177;SDS011;38141;42.666;23.344;2024-02-28T04:09:19;37.30;;;20.00;;
3177;SDS011;38141;42.666;23.344;2024-02-28T04:11:46;31.90;;;18.17;;
3177;SDS011;38141;42.666;23.344;2024-02-28T04:14:13;36.40;;;17.60;;
3177;SDS011;38141;42.666;23.344;2024-02-28T04:16:41;34.20;;;18.30;;
3177;SDS011;38141;42.666;23.344;2024-02-28T04:19:09;29.80;;;15.67;;
3177;SDS011;38141;42.666;23.344;2024-02-28T04:21:36;31.53;;;16.00;;
3177;SDS011;38141;42.666;23.344;2024-02-28T04:24:04;36.63;;;17.67;;
3177;SDS011;38141;42.666;23.344;2024-02-28T04:26:32;39.57;;;19.60;;
3177;SDS011;38141;42.666;23.344;2024-02-28T04:28:59;39.50;;;17.50;;
3177;SDS011;38141;42.666;23.344;2024-02-28T04:31:28;34.60;;;17.47;;
3177;SDS011;38141;42.666;23.344;2024-02-28T04:33:55;33.10;;;17.80;;
3177;SDS011;38141;42.666;23.344;2024-02-28T04:36:22;32.83;;;17.43;;
3177;SDS011;38141;42.666;23.344;2024-02-28T04:38:49;28.87;;;16.67;;
3177;SDS011;38141;42.666;23.344;2024-02-28T04:41:17;30.03;;;16.80;;
3177;SDS011;38141;42.666;23.344;2024-02-28T04:43:45;31.27;;;17.40;;
3177;SDS011;38141;42.666;23.344;2024-02-28T04:46:12;36.47;;;18.23;;
3177;SDS011;38141;42.666;23.344;2024-02-28T04:48:39;34.90;;;19.17;;
3177;SDS011;38141;42.666;23.344;2024-02-28T04:51:05;29.63;;;17.10;;
3177;SDS011;38141;42.666;23.344;2024-02-28T04:53:33;33.10;;;17.80;;
3177;SDS011;38141;42.666;23.344;2024-02-28T04:56:00;36.23;;;18.30;;
3177;SDS011;38141;42.666;23.344;2024-02-28T04:58:28;36.70;;;18.40;;
3177;SDS011;38141;42.666;23.344;2024-02-28T05:00:55;33.10;;;18.50;;
3177;SDS011;38141;42.666;23.344;2024-02-28T05:03:51;34.20;;;17.43;;
3177;SDS011;38141;42.666;23.344;2024-02-28T05:06:18;35.53;;;19.10;;
3177;SDS011;38141;42.666;23.344;2024-02-28T05:08:45;43.03;;;19.90;;
3177;SDS011;38141;42.666;23.344;2024-02-28T05:11:12;34.27;;;16.73;;
3177;SDS011;38141;42.666;23.344;2024-02-28T05:13:40;39.73;;;20.20;;
3177;SDS011;38141;42.666;23.344;2024-02-28T05:16:11;39.57;;;21.00;;
3177;SDS011;38141;42.666;23.344;2024-02-28T05:18:39;44.00;;;22.57;;
3177;SDS011;38141;42.666;23.344;2024-02-28T05:21:07;49.00;;;22.47;;
3177;SDS011;38141;42.666;23.344;2024-02-28T05:23:34;41.53;;;19.13;;
3177;SDS011;38141;42.666;23.344;2024-02-28T05:26:01;43.57;;;21.17;;
3177;SDS011;38141;42.666;23.344;2024-02-28T05:28:31;38.63;;;18.60;;
3177;SDS011;38141;42.666;23.344;2024-02-28T05:30:59;38.30;;;20.33;;
3177;SDS011;38141;42.666;23.344;2024-02-28T05:33:28;37.90;;;20.33;;
3177;SDS011;38141;42.666;23.344;2024-02-28T05:35:55;39.97;;;23.30;;
3177;SDS011;38141;42.666;23.344;2024-02-28T05:38:23;46.30;;;24.10;;
3177;SDS011;38141;42.666;23.344;2024-02-28T05:40:50;50.20;;;26.27;;
3177;SDS011;38141;42.666;23.344;2024-02-28T05:43:17;47.00;;;26.57;;
3177;SDS011;38141;42.666;23.344;2024-02-28T05:45:44;49.63;;;23.37;;
3177;SDS011;38141;42.666;23.344;2024-02-28T05:48:11;43.13;;;24.93;;
3177;SDS011;38141;42.666;23.344;2024-02-28T05:50:38;43.87;;;22.30;;
3177;SDS011;38141;42.666;23.344;2024-02-28T05:53:05;39.53;;;22.23;;
3177;SDS011;38141;42.666;23.344;2024-02-28T05:55:34;43.57;;;23.07;;
3177;SDS011;38141;42.666;23.344;2024-02-28T05:58:01;45.17;;;20.73;;
3177;SDS011;38141;42.666;23.344;2024-02-28T06:00:28;46.53;;;24.57;;
3177;SDS011;38141;42.666;23.344;2024-02-28T06:02:55;50.20;;;26.30;;
3177;SDS011;38141;42.666;23.344;2024-02-28T06:05:22;41.33;;;22.87;;
3177;SDS011;38141;42.666;23.344;2024-02-28T06:07:49;55.40;;;22.63;;
3177;SDS011;38141;42.666;23.344;2024-02-28T06:10:16;38.80;;;20.20;;
3177;SDS011;38141;42.666;23.344;2024-02-28T06:12:45;45.13;;;18.90;;
3177;SDS011;38141;42.666;23.344;2024-02-28T06:15:12;35.90;;;18.90;;
3177;SDS011;38141;42.666;23.344;2024-02-28T06:17:38;43.00;;;20.07;;
3177;SDS011;38141;42.666;23.344;2024-02-28T06:20:06;36.30;;;21.30;;
3177;SDS011;38141;42.666;23.344;2024-02-28T06:22:33;39.03;;;21.33;;
3177;SDS011;38141;42.666;23.344;2024-02-28T06:25:00;37.17;;;19.80;;
3177;SDS011;38141;42.666;23.344;2024-02-28T06:27:27;32.27;;;18.63;;
3177;SDS011;38141;42.666;23.344;2024-02-28T06:29:56;36.50;;;19.63;;
3177;SDS011;38141;42.666;23.344;2024-02-28T06:32:25;35.73;;;19.23;;
3177;SDS011;38141;42.666;23.344;2024-02-28T06:34:52;38.00;;;19.47;;
3177;SDS011;38141;42.666;23.344;2024-02-28T06:37:19;38.63;;;19.87;;
3177;SDS011;38141;42.666;23.344;2024-02-28T06:39:46;36.50;;;20.60;;
3177;SDS011;38141;42.666;23.344;2024-02-28T06:42:13;35.40;;;20.93;;
3177;SDS011;38141;42.666;23.344;2024-02-28T06:44:40;35.50;;;19.33;;
3177;SDS011;38141;42.666;23.344;2024-02-28T06:47:09;31.53;;;18.10;;
3177;SDS011;38141;42.666;23.344;2024-02-28T06:49:36;28.60;;;18.70;;
3177;SDS011;38141;42.666;23.344;2024-02-28T06:52:03;28.10;;;18.13;;
3177;SDS011;38141;42.666;23.344;2024-02-28T06:54:31;25.40;;;17.20;;
3177;SDS011;38141;42.666;23.344;2024-02-28T06:56:58;31.60;;;17.40;;
3177;SDS011;38141;42.666;23.344;2024-02-28T06:59:25;27.70;;;17.30;;
3177;SDS011;38141;42.666;23.344;2024-02-28T07:01:51;32.30;;;17.43;;
3177;SDS011;38141;42.666;23.344;2024-02-28T07:04:19;29.47;;;16.70;;
3177;SDS011;38141;42.666;23.344;2024-02-28T07:06:46;27.27;;;17.17;;
3177;SDS011;38141;42.666;23.344;2024-02-28T07:09:13;30.60;;;18.00;;
3177;SDS011;38141;42.666;23.344;2024-02-28T07:11:40;31.30;;;17.70;;
3177;SDS011;38141;42.666;23.344;2024-02-28T07:14:07;25.47;;;16.60;;
3177;SDS011;38141;42.666;23.344;2024-02-28T07:16:34;26.33;;;16.63;;
3177;SDS011;38141;42.666;23.344;2024-02-28T07:19:01;32.43;;;18.30;;
3177;SDS011;38141;42.666;23.344;2024-02-28T07:21:30;27.33;;;17.47;;
3177;SDS011;38141;42.666;23.344;2024-02-28T07:23:57;30.83;;;17.20;;
3177;SDS011;38141;42.666;23.344;2024-02-28T07:26:24;39.00;;;18.33;;
3177;SDS011;38141;42.666;23.344;2024-02-28T07:28:51;27.37;;;17.67;;
3177;SDS011;38141;42.666;23.344;2024-02-28T07:31:18;29.27;;;17.87;;
3177;SDS011;38141;42.666;23.344;2024-02-28T07:33:45;26.87;;;16.87;;
3177;SDS011;38141;42.666;23.344;2024-02-28T07:36:12;28.57;;;18.03;;
3177;SDS011;38141;42.666;23.344;2024-02-28T07:38:42;31.33;;;19.50;;
3177;SDS011;38141;42.666;23.344;2024-02-28T07:41:09;28.27;;;17.57;;
3177;SDS011;38141;42.666;23.344;2024-02-28T07:43:36;37.63;;;22.30;;
3177;SDS011;38141;42.666;23.344;2024-02-28T07:46:06;54.90;;;32.63;;
3177;SDS011;38141;42.666;23.344;2024-02-28T07:48:33;37.50;;;24.67;;
3177;SDS011;38141;42.666;23.344;2024-02-28T07:51:00;31.00;;;19.23;;
3177;SDS011;38141;42.666;23.344;2024-02-28T07:53:27;31.93;;;19.63;;
3177;SDS011;38141;42.666;23.344;2024-02-28T07:55:56;31.63;;;18.80;;
3177;SDS011;38141;42.666;23.344;2024-02-28T07:58:23;30.33;;;20.90;;
3177;SDS011;38141;42.666;23.344;2024-02-28T08:00:50;51.00;;;31.60;;
3177;SDS011;38141;42.666;23.344;2024-02-28T08:03:18;30.27;;;20.40;;
3177;SDS011;38141;42.666;23.344;2024-02-28T08:05:45;37.13;;;22.40;;
3177;SDS011;38141;42.666;23.344;2024-02-28T08:08:13;36.80;;;24.40;;
3177;SDS011;38141;42.666;23.344;2024-02-28T08:10:41;29.27;;;19.02;;
3177;SDS011;38141;42.666;23.344;2024-02-28T08:13:09;31.85;;;19.27;;
3177;SDS011;38141;42.666;23.344;2024-02-28T08:15:36;33.95;;;21.58;;
3177;SDS011;38141;42.666;23.344;2024-02-28T08:18:03;27.55;;;18.45;;
3177;SDS011;38141;42.666;23.344;2024-02-28T08:20:30;27.67;;;18.48;;
3177;SDS011;38141;42.666;23.344;2024-02-28T08:22:57;31.23;;;18.08;;
3177;SDS011;38141;42.666;23.344;2024-02-28T08:25:25;25.17;;;17.60;;
3177;SDS011;38141;42.666;23.344;2024-02-28T08:27:52;34.30;;;18.13;;
3177;SDS011;38141;42.666;23.344;2024-02-28T08:30:20;28.13;;;18.65;;
3177;SDS011;38141;42.666;23.344;2024-02-28T08:32:47;31.55;;;21.08;;
3177;SDS011;38141;42.666;23.344;2024-02-28T08:35:16;26.10;;;16.75;;
3177;SDS011;38141;42.666;23.344;2024-02-28T08:37:44;22.88;;;16.48;;
3177;SDS011;38141;42.666;23.344;2024-02-28T08:40:11;26.30;;;17.65;;
3177;SDS011;38141;42.666;23.344;2024-02-28T08:42:38;25.83;;;17.70;;
3177;SDS011;38141;42.666;23.344;2024-02-28T08:45:07;28.17;;;18.20;;
3177;SDS011;38141;42.666;23.344;2024-02-28T08:47:36;30.38;;;17.63;;
3177;SDS011;38141;42.666;23.344;2024-02-28T08:50:03;24.55;;;15.45;;
3177;SDS011;38141;42.666;23.344;2024-02-28T08:52:30;26.90;;;16.75;;
3177;SDS011;38141;42.666;23.344;2024-02-28T08:54:58;23.20;;;15.02;;
3177;SDS011;38141;42.666;23.344;2024-02-28T08:57:25;26.63;;;19.90;;
3177;SDS011;38141;42.666;23.344;2024-02-28T08:59:53;25.35;;;17.38;;
3177;SDS011;38141;42.666;23.344;2024-02-28T09:02:20;27.88;;;19.00;;
3177;SDS011;38141;42.666;23.344;2024-02-28T09:04:48;27.08;;;17.70;;
3177;SDS011;38141;42.666;23.344;2024-02-28T09:07:17;27.00;;;18.70;;
3177;SDS011;38141;42.666;23.344;2024-02-28T09:09:44;32.08;;;19.10;;
3177;SDS011;38141;42.666;23.344;2024-02-28T09:12:12;28.65;;;18.80;;
3177;SDS011;38141;42.666;23.344;2024-02-28T09:14:39;32.70;;;18.25;;
3177;SDS011;38141;42.666;23.344;2024-02-28T09:17:06;30.45;;;19.65;;
3177;SDS011;38141;42.666;23.344;2024-02-28T09:19:33;33.08;;;20.10;;
3177;SDS011;38141;42.666;23.344;2024-02-28T09:22:01;24.63;;;17.35;;
3177;SDS011;38141;42.666;23.344;2024-02-28T09:24:28;28.42;;;19.48;;
3177;SDS011;38141;42.666;23.344;2024-02-28T09:26:54;25.58;;;17.60;;
3177;SDS011;38141;42.666;23.344;2024-02-28T09:29:21;21.88;;;17.02;;
3177;SDS011;38141;42.666;23.344;2024-02-28T09:31:48;24.17;;;17.10;;
3177;SDS011;38141;42.666;23.344;2024-02-28T09:34:15;23.67;;;16.83;;
3177;SDS011;38141;42.666;23.344;2024-02-28T09:36:42;25.55;;;18.05;;
3177;SDS011;38141;42.666;23.344;2024-02-28T09:42:07;24.52;;;17.08;;
3177;SDS011;38141;42.666;23.344;2024-02-28T09:44:36;27.63;;;19.02;;
3177;SDS011;38141;42.666;23.344;2024-02-28T09:47:05;21.63;;;16.85;;
3177;SDS011;38141;42.666;23.344;2024-02-28T09:49:32;24.08;;;16.52;;
3177;SDS011;38141;42.666;23.344;2024-02-28T09:52:03;20.63;;;15.48;;
3177;SDS011;38141;42.666;23.344;2024-02-28T09:54:32;21.85;;;15.73;;
3177;SDS011;38141;42.666;23.344;2024-02-28T09:56:59;22.13;;;16.90;;
3177;SDS011;38141;42.666;23.344;2024-02-28T09:59:26;24.55;;;16.52;;
3177;SDS011;38141;42.666;23.344;2024-02-28T10:01:55;23.42;;;14.90;;
3177;SDS011;38141;42.666;23.344;2024-02-28T10:04:24;24.48;;;17.08;;
3177;SDS011;38141;42.666;23.344;2024-02-28T10:06:53;25.30;;;17.63;;
3177;SDS011;38141;42.666;23.344;2024-02-28T10:09:20;21.83;;;15.98;;
3177;SDS011;38141;42.666;23.344;2024-02-28T10:11:49;24.63;;;16.30;;
3177;SDS011;38141;42.666;23.344;2024-02-28T10:14:19;25.42;;;16.15;;
3177;SDS011;38141;42.666;23.344;2024-02-28T10:16:46;28.98;;;16.25;;
3177;SDS011;38141;42.666;23.344;2024-02-28T10:19:13;26.95;;;15.88;;
3177;SDS011;38141;42.666;23.344;2024-02-28T10:21:40;25.27;;;15.63;;
3177;SDS011;38141;42.666;23.344;2024-02-28T10:24:08;24.52;;;16.45;;
3177;SDS011;38141;42.666;23.344;2024-02-28T10:26:42;24.85;;;15.95;;
3177;SDS011;38141;42.666;23.344;2024-02-28T10:29:11;24.75;;;16.52;;
3177;SDS011;38141;42.666;23.344;2024-02-28T10:31:38;25.58;;;15.45;;
3177;SDS011;38141;42.666;23.344;2024-02-28T10:34:06;26.08;;;16.08;;
3177;SDS011;38141;42.666;23.344;2024-02-28T10:36:34;25.97;;;16.53;;
3177;SDS011;38141;42.666;23.344;2024-02-28T10:39:04;23.00;;;16.00;;
3177;SDS011;38141;42.666;23.344;2024-02-28T10:41:32;22.67;;;14.20;;
3177;SDS011;38141;42.666;23.344;2024-02-28T10:44:00;20.17;;;14.33;;
3177;SDS011;38141;42.666;23.344;2024-02-28T10:46:32;17.20;;;12.27;;
3177;SDS011;38141;42.666;23.344;2024-02-28T10:48:59;21.17;;;12.23;;
3177;SDS011;38141;42.666;23.344;2024-02-28T10:51:26;22.53;;;13.00;;
3177;SDS011;38141;42.666;23.344;2024-02-28T10:53:58;17.20;;;11.93;;
3177;SDS011;38141;42.666;23.344;2024-02-28T10:56:34;19.00;;;11.35;;
3177;SDS011;38141;42.666;23.344;2024-02-28T10:59:01;16.20;;;10.50;;
3177;SDS011;38141;42.666;23.344;2024-02-28T11:01:33;14.57;;;9.48;;
3177;SDS011;38141;42.666;23.344;2024-02-28T11:04:02;21.23;;;10.40;;
3177;SDS011;38141;42.666;23.344;2024-02-28T11:06:30;19.70;;;9.75;;
3177;SDS011;38141;42.666;23.344;2024-02-28T11:08:58;14.75;;;8.82;;
3177;SDS011;38141;42.666;23.344;2024-02-28T11:11:29;16.05;;;8.88;;
3177;SDS011;38141;42.666;23.344;2024-02-28T11:13:57;13.05;;;8.65;;
3177;SDS011;38141;42.666;23.344;2024-02-28T11:16:27;14.90;;;9.15;;
3177;SDS011;38141;42.666;23.344;2024-02-28T11:18:56;17.77;;;11.48;;
3177;SDS011;38141;42.666;23.344;2024-02-28T11:21:23;14.07;;;9.70;;
3177;SDS011;38141;42.666;23.344;2024-02-28T11:23:52;19.83;;;10.43;;
3177;SDS011;38141;42.666;23.344;2024-02-28T11:26:19;17.67;;;10.93;;
3177;SDS011;38141;42.666;23.344;2024-02-28T11:28:47;16.13;;;10.57;;
3177;SDS011;38141;42.666;23.344;2024-02-28T11:31:14;16.15;;;9.80;;
3177;SDS011;38141;42.666;23.344;2024-02-28T11:33:41;14.75;;;10.38;;
3177;SDS011;38141;42.666;23.344;2024-02-28T11:36:09;15.25;;;10.60;;
3177;SDS011;38141;42.666;23.344;2024-02-28T11:38:38;24.60;;;11.40;;
3177;SDS011;38141;42.666;23.344;2024-02-28T11:41:05;14.80;;;10.40;;
3177;SDS011;38141;42.666;23.344;2024-02-28T11:43:32;13.55;;;10.35;;
3177;SDS011;38141;42.666;23.344;2024-02-28T11:46:01;13.95;;;9.10;;
3177;SDS011;38141;42.666;23.344;2024-02-28T11:48:29;15.98;;;9.75;;
3177;SDS011;38141;42.666;23.344;2024-02-28T11:50:58;14.68;;;9.85;;
3177;SDS011;38141;42.666;23.344;2024-02-28T11:53:26;15.15;;;8.75;;
3177;SDS011;38141;42.666;23.344;2024-02-28T11:55:53;15.13;;;9.30;;
3177;SDS011;38141;42.666;23.344;2024-02-28T11:58:23;13.20;;;9.20;;
3177;SDS011;38141;42.666;23.344;2024-02-28T12:00:51;12.90;;;9.23;;
3177;SDS011;38141;42.666;23.344;2024-02-28T12:03:19;17.70;;;10.10;;
3177;SDS011;38141;42.666;23.344;2024-02-28T12:05:47;16.63;;;8.85;;
3177;SDS011;38141;42.666;23.344;2024-02-28T12:08:14;10.70;;;8.50;;
3177;SDS011;38141;42.666;23.344;2024-02-28T12:10:44;16.27;;;8.88;;
3177;SDS011;38141;42.666;23.344;2024-02-28T12:13:11;12.15;;;6.93;;
3177;SDS011;38141;42.666;23.344;2024-02-28T12:15:43;65.30;;;44.38;;
3177;SDS011;38141;42.666;23.344;2024-02-28T12:18:10;13.07;;;8.32;;
3177;SDS011;38141;42.666;23.344;2024-02-28T12:20:38;12.13;;;7.30;;
3177;SDS011;38141;42.666;23.344;2024-02-28T12:23:05;12.98;;;8.25;;
3177;SDS011;38141;42.666;23.344;2024-02-28T12:25:33;9.37;;;6.97;;
3177;SDS011;38141;42.666;23.344;2024-02-28T12:28:03;13.23;;;8.65;;
3177;SDS011;38141;42.666;23.344;2024-02-28T12:30:38;16.60;;;7.53;;
3177;SDS011;38141;42.666;23.344;2024-02-28T12:33:06;15.23;;;9.17;;
3177;SDS011;38141;42.666;23.344;2024-02-28T12:35:33;14.83;;;9.70;;
3177;SDS011;38141;42.666;23.344;2024-02-28T12:38:02;13.07;;;8.87;;
3177;SDS011;38141;42.666;23.344;2024-02-28T12:40:29;12.90;;;9.50;;
3177;SDS011;38141;42.666;23.344;2024-02-28T12:42:56;16.10;;;9.90;;
3177;SDS011;38141;42.666;23.344;2024-02-28T12:45:24;15.37;;;9.43;;
3177;SDS011;38141;42.666;23.344;2024-02-28T12:47:51;13.53;;;8.87;;
3177;SDS011;38141;42.666;23.344;2024-02-28T12:50:22;13.90;;;9.20;;
3177;SDS011;38141;42.666;23.344;2024-02-28T12:52:49;13.67;;;8.80;;
3177;SDS011;38141;42.666;23.344;2024-02-28T12:55:18;19.50;;;10.00;;
3177;SDS011;38141;42.666;23.344;2024-02-28T12:57:46;13.30;;;9.53;;
3177;SDS011;38141;42.666;23.344;2024-02-28T13:00:14;12.90;;;8.93;;
3177;SDS011;38141;42.666;23.344;2024-02-28T13:02:42;12.53;;;7.97;;
3177;SDS011;38141;42.666;23.344;2024-02-28T13:05:10;13.50;;;8.43;;
3177;SDS011;38141;42.666;23.344;2024-02-28T13:07:38;14.67;;;8.80;;
3177;SDS011;38141;42.666;23.344;2024-02-28T13:10:05;15.23;;;7.90;;
3177;SDS011;38141;42.666;23.344;2024-02-28T13:12:34;13.60;;;8.23;;
3177;SDS011;38141;42.666;23.344;2024-02-28T13:15:01;17.63;;;8.20;;
3177;SDS011;38141;42.666;23.344;2024-02-28T13:17:30;13.90;;;8.47;;
3177;SDS011;38141;42.666;23.344;2024-02-28T13:19:58;12.40;;;7.47;;
3177;SDS011;38141;42.666;23.344;2024-02-28T13:22:25;11.80;;;8.20;;
3177;SDS011;38141;42.666;23.344;2024-02-28T13:24:52;14.13;;;8.33;;
3177;SDS011;38141;42.666;23.344;2024-02-28T13:27:19;12.83;;;7.70;;
3177;SDS011;38141;42.666;23.344;2024-02-28T13:29:46;10.10;;;7.77;;
3177;SDS011;38141;42.666;23.344;2024-02-28T13:32:13;16.37;;;7.77;;
3177;SDS011;38141;42.666;23.344;2024-02-28T13:34:40;17.20;;;8.57;;
3177;SDS011;38141;42.666;23.344;2024-02-28T13:37:08;16.63;;;8.03;;
3177;SDS011;38141;42.666;23.344;2024-02-28T13:39:35;9.87;;;7.20;;
3177;SDS011;38141;42.666;23.344;2024-02-28T13:42:02;13.20;;;8.87;;
3177;SDS011;38141;42.666;23.344;2024-02-28T13:44:31;20.13;;;13.97;;
3177;SDS011;38141;42.666;23.344;2024-02-28T13:46:59;13.33;;;8.13;;
3177;SDS011;38141;42.666;23.344;2024-02-28T13:49:26;13.30;;;8.73;;
3177;SDS011;38141;42.666;23.344;2024-02-28T13:51:53;26.70;;;15.60;;
3177;SDS011;38141;42.666;23.344;2024-02-28T13:54:22;28.00;;;18.10;;
3177;SDS011;38141;42.666;23.344;2024-02-28T13:56:49;22.23;;;14.23;;
3177;SDS011;38141;42.666;23.344;2024-02-28T13:59:16;27.47;;;17.70;;
3177;SDS011;38141;42.666;23.344;2024-02-28T14:01:43;26.97;;;14.63;;
3177;SDS011;38141;42.666;23.344;2024-02-28T14:04:10;31.40;;;16.87;;
3177;SDS011;38141;42.666;23.344;2024-02-28T14:06:37;23.53;;;14.80;;
3177;SDS011;38141;42.666;23.344;2024-02-28T14:09:04;18.90;;;10.93;;
3177;SDS011;38141;42.666;23.344;2024-02-28T14:11:32;23.07;;;11.30;;
3177;SDS011;38141;42.666;23.344;2024-02-28T14:14:00;23.97;;;12.37;;
3177;SDS011;38141;42.666;23.344;2024-02-28T14:16:27;15.53;;;8.70;;
3177;SDS011;38141;42.666;23.344;2024-02-28T14:18:57;21.43;;;11.10;;
3177;SDS011;38141;42.666;23.344;2024-02-28T14:21:24;20.27;;;9.90;;
3177;SDS011;38141;42.666;23.344;2024-02-28T14:23:51;13.90;;;9.30;;
3177;SDS011;38141;42.666;23.344;2024-02-28T14:26:19;13.87;;;9.20;;
3177;SDS011;38141;42.666;23.344;2024-02-28T14:28:50;19.40;;;9.80;;